Time;durP1;ratioP1;P1;durP2;ratioP2;P2;SDS_P1;SDS_P2;PMS_P1;PMS_P2;Temp;Humidity;BMP_temperature;BMP_pressure;BME280_temperature;BME280_humidity;BME280_pressure;Samples;Min_cycle;Max_cycle;Signal;HPM_P1;HPM_P2
2022/02/28 00:04:59;;;;;;;11.27;2.85;;;-0.50;99.90;;;;;;10319793;28;20077;-62
2022/02/28 00:10:01;;;;;;;5.32;2.17;;;-0.50;99.90;;;;;;10351647;28;20107;-61
2022/02/28 00:15:05;;;;;;;5.88;2.15;;;-0.60;99.90;;;;;;10349971;28;20041;-62
2022/02/28 00:20:09;;;;;;;6.88;2.63;;;-0.60;99.90;;;;;;10355299;28;20115;-61
2022/02/28 00:25:12;;;;;;;10.75;2.70;;;-0.70;99.90;;;;;;10352798;28;20077;-62
2022/02/28 00:30:14;;;;;;;5.78;2.00;;;-0.70;99.90;;;;;;10348484;28;20119;-61
2022/02/28 00:35:15;;;;;;;4.95;1.63;;;-0.70;99.90;;;;;;10340206;28;20053;-61
2022/02/28 00:40:17;;;;;;;9.05;2.60;;;-0.70;99.90;;;;;;10341573;28;20054;-62
2022/02/28 00:45:19;;;;;;;3.97;1.40;;;-0.70;99.90;;;;;;10341275;28;20069;-62
2022/02/28 00:50:21;;;;;;;4.38;1.60;;;-0.80;99.90;;;;;;10345277;28;20129;-61
2022/02/28 00:55:22;;;;;;;4.05;1.88;;;-0.80;99.90;;;;;;10356364;28;20057;-62
2022/02/28 01:00:24;;;;;;;7.20;1.52;;;-0.80;99.90;;;;;;10328523;28;20058;-62
2022/02/28 01:05:26;;;;;;;6.30;2.38;;;-0.90;99.90;;;;;;10338353;28;20073;-62
2022/02/28 01:10:28;;;;;;;3.70;1.88;;;-0.90;99.90;;;;;;10350306;28;20493;-62
2022/02/28 01:15:30;;;;;;;5.40;1.60;;;-0.90;99.90;;;;;;10342025;28;20163;-62
2022/02/28 01:20:32;;;;;;;2.47;1.33;;;-0.90;99.90;;;;;;10343265;28;20038;-62
2022/02/28 01:25:33;;;;;;;2.85;1.55;;;-0.90;99.90;;;;;;10343851;28;20065;-61
2022/02/28 01:30:35;;;;;;;4.78;1.70;;;-1.00;99.90;;;;;;10343550;28;20119;-61
2022/02/28 01:35:37;;;;;;;6.38;1.52;;;-1.00;99.90;;;;;;10319871;28;20217;-62
2022/02/28 01:40:39;;;;;;;3.97;1.35;;;-1.00;99.90;;;;;;10344310;28;20077;-61
2022/02/28 01:45:40;;;;;;;3.80;1.45;;;-1.10;99.90;;;;;;10340409;28;20112;-61
2022/02/28 01:50:42;;;;;;;6.68;1.80;;;-1.10;99.90;;;;;;10345410;28;20084;-62
2022/02/28 01:55:44;;;;;;;7.43;2.58;;;-1.20;99.90;;;;;;10345714;28;20078;-61
2022/02/28 02:00:46;;;;;;;10.77;1.58;;;-1.20;99.90;;;;;;10339624;28;20191;-62
2022/02/28 02:05:48;;;;;;;7.72;1.70;;;-1.20;99.90;;;;;;10340988;28;20440;-61
2022/02/28 02:10:50;;;;;;;8.13;2.60;;;-1.20;99.90;;;;;;10343898;28;20068;-63
2022/02/28 02:15:52;;;;;;;9.40;2.10;;;-1.30;99.90;;;;;;10340970;28;20049;-62
2022/02/28 02:20:54;;;;;;;4.82;1.88;;;-1.30;99.90;;;;;;10341567;28;20140;-61
2022/02/28 02:25:56;;;;;;;6.75;2.13;;;-1.30;99.90;;;;;;10336787;28;20108;-61
2022/02/28 02:30:58;;;;;;;28.27;10.57;;;-1.30;99.90;;;;;;10342774;28;20506;-61
2022/02/28 02:36:04;;;;;;;25.38;9.50;;;-1.30;99.90;;;;;;10337439;28;20498;-62
2022/02/28 02:41:07;;;;;;;16.05;6.72;;;-1.30;99.90;;;;;;10343098;28;20116;-62
2022/02/28 02:46:08;;;;;;;10.05;4.05;;;-1.40;99.90;;;;;;10338952;28;20102;-61
2022/02/28 02:51:12;;;;;;;5.00;1.67;;;-1.40;99.90;;;;;;10337426;28;20061;-61
2022/02/28 02:56:14;;;;;;;5.10;1.90;;;-1.40;99.90;;;;;;10342490;28;20089;-62
2022/02/28 03:01:16;;;;;;;7.13;1.75;;;-1.50;99.90;;;;;;10342097;28;20058;-61
2022/02/28 03:06:18;;;;;;;3.63;1.33;;;-1.50;99.90;;;;;;10340356;28;20073;-61
2022/02/28 03:11:20;;;;;;;6.50;1.88;;;-1.50;99.90;;;;;;10340435;28;20136;-61
2022/02/28 03:16:21;;;;;;;5.53;2.13;;;-1.50;99.90;;;;;;10336358;28;20571;-60
2022/02/28 03:21:23;;;;;;;7.68;2.47;;;-1.50;99.90;;;;;;10332507;28;20053;-60
2022/02/28 03:26:25;;;;;;;5.43;1.48;;;-1.60;99.90;;;;;;10347579;28;20073;-61
2022/02/28 03:31:26;;;;;;;6.32;1.60;;;-1.50;99.90;;;;;;10343568;28;20084;-61
2022/02/28 03:36:28;;;;;;;6.32;2.05;;;-1.60;99.90;;;;;;10343222;28;20394;-61
2022/02/28 03:41:30;;;;;;;7.45;2.15;;;-1.60;99.90;;;;;;10346229;28;20129;-61
2022/02/28 03:46:32;;;;;;;3.75;2.22;;;-1.60;99.90;;;;;;10344633;28;20054;-62
2022/02/28 03:51:34;;;;;;;5.07;2.10;;;-1.60;99.90;;;;;;10344427;28;20375;-61
2022/02/28 03:56:35;;;;;;;4.28;2.40;;;-1.70;99.90;;;;;;10341171;28;20510;-61
2022/02/28 04:01:37;;;;;;;5.68;2.13;;;-1.70;99.90;;;;;;10341737;28;20548;-61
2022/02/28 04:06:41;;;;;;;6.32;1.60;;;-1.70;99.90;;;;;;10345910;28;20532;-61
2022/02/28 04:11:43;;;;;;;6.85;1.60;;;-1.80;99.90;;;;;;10343893;28;20092;-61
2022/02/28 04:16:44;;;;;;;4.82;1.67;;;-1.80;99.90;;;;;;10330281;28;20103;-61
2022/02/28 04:21:46;;;;;;;6.40;1.60;;;-1.80;99.90;;;;;;10348608;28;20482;-61
2022/02/28 04:26:48;;;;;;;10.80;2.28;;;-1.80;99.90;;;;;;10352103;28;22924;-60
2022/02/28 04:31:50;;;;;;;4.63;1.50;;;-1.80;99.90;;;;;;10341776;28;20050;-62
2022/02/28 04:36:56;;;;;;;5.40;1.77;;;-1.90;99.90;;;;;;10345827;28;20085;-62
2022/02/28 04:41:58;;;;;;;3.90;1.63;;;-1.90;99.90;;;;;;10348008;28;20165;-61
2022/02/28 04:47:01;;;;;;;4.85;2.20;;;-1.90;99.90;;;;;;10332317;28;20121;-61
2022/02/28 04:52:03;;;;;;;3.55;1.67;;;-2.00;99.90;;;;;;10338813;28;20085;-61
2022/02/28 04:57:05;;;;;;;6.00;1.83;;;-2.00;99.90;;;;;;10350398;28;20045;-61
2022/02/28 05:02:07;;;;;;;5.97;1.63;;;-2.00;99.90;;;;;;10341138;28;20073;-61
2022/02/28 05:07:08;;;;;;;4.40;1.95;;;-2.10;99.90;;;;;;10347610;28;20084;-61
2022/02/28 05:12:10;;;;;;;7.28;2.00;;;-2.10;99.90;;;;;;10343855;28;20069;-61
2022/02/28 05:17:12;;;;;;;8.82;2.33;;;-2.10;99.90;;;;;;10342300;28;20126;-62
2022/02/28 05:22:13;;;;;;;6.22;2.17;;;-2.10;99.90;;;;;;10344335;28;20050;-61
2022/02/28 05:27:15;;;;;;;4.45;1.85;;;-2.10;99.90;;;;;;10342948;28;20054;-61
2022/02/28 05:32:17;;;;;;;6.95;2.30;;;-2.20;99.90;;;;;;10349794;28;20054;-62
2022/02/28 05:37:18;;;;;;;7.35;2.25;;;-2.20;99.90;;;;;;10344354;28;20080;-62
2022/02/28 05:42:20;;;;;;;4.53;2.33;;;-2.20;99.90;;;;;;10353712;28;20505;-61
2022/02/28 05:47:22;;;;;;;7.15;1.85;;;-2.20;99.90;;;;;;10343028;28;20084;-60
2022/02/28 05:52:24;;;;;;;6.93;2.38;;;-2.20;99.90;;;;;;10342093;28;20130;-61
2022/02/28 05:57:25;;;;;;;10.00;2.28;;;-2.20;99.90;;;;;;10341641;28;20132;-60
2022/02/28 06:02:27;;;;;;;7.50;2.08;;;-2.20;99.90;;;;;;10342622;28;20133;-61
2022/02/28 06:07:29;;;;;;;10.48;2.92;;;-2.20;99.90;;;;;;10337867;28;20069;-61
2022/02/28 06:12:30;;;;;;;9.35;2.70;;;-2.20;99.90;;;;;;10336686;28;20066;-63
2022/02/28 06:17:52;;;;;;;7.10;2.30;;;-2.20;99.90;;;;;;10346216;28;20044;-63
2022/02/28 06:22:54;;;;;;;8.27;2.47;;;-2.10;99.90;;;;;;10341637;28;20564;-64
2022/02/28 06:27:56;;;;;;;11.38;3.22;;;-2.10;99.90;;;;;;10340317;28;20061;-63
2022/02/28 06:32:57;;;;;;;10.85;2.15;;;-2.10;99.90;;;;;;10338168;28;20065;-64
2022/02/28 06:37:59;;;;;;;7.10;3.60;;;-2.00;99.90;;;;;;10337366;28;20204;-64
2022/02/28 06:43:00;;;;;;;9.40;2.45;;;-2.00;99.90;;;;;;10327054;28;20073;-65
2022/02/28 06:48:02;;;;;;;8.18;2.92;;;-1.90;99.90;;;;;;10344760;28;20125;-64
2022/02/28 06:53:04;;;;;;;9.80;3.65;;;-1.90;99.90;;;;;;10337344;28;20085;-64
2022/02/28 06:58:10;;;;;;;8.18;3.72;;;-1.80;99.90;;;;;;10337428;28;20420;-65
2022/02/28 07:03:12;;;;;;;7.03;3.00;;;-1.70;99.90;;;;;;10336061;28;20073;-65
2022/02/28 07:08:16;;;;;;;9.75;4.00;;;-1.70;99.90;;;;;;10333737;28;20042;-64
2022/02/28 07:13:18;;;;;;;14.65;5.95;;;-1.50;99.90;;;;;;10338939;28;20074;-64
2022/02/28 07:18:20;;;;;;;15.35;6.43;;;-1.40;99.90;;;;;;10334885;28;20081;-63
2022/02/28 07:23:21;;;;;;;18.85;7.05;;;-1.30;99.90;;;;;;10333128;28;20135;-64
2022/02/28 07:28:23;;;;;;;20.38;6.72;;;-1.10;99.90;;;;;;10336845;28;20107;-64
2022/02/28 07:33:25;;;;;;;16.92;6.38;;;-1.00;99.90;;;;;;10341518;28;20580;-64
2022/02/28 07:38:26;;;;;;;15.45;5.55;;;-0.80;99.90;;;;;;10342593;28;20061;-64
2022/02/28 07:43:28;;;;;;;12.40;4.25;;;-0.60;99.90;;;;;;10343388;28;20092;-64
2022/02/28 07:48:30;;;;;;;11.60;3.58;;;-0.40;99.90;;;;;;10328221;28;20042;-64
2022/02/28 07:53:31;;;;;;;10.82;3.92;;;-0.20;99.90;;;;;;10335630;28;20096;-64
2022/02/28 07:58:33;;;;;;;9.30;3.95;;;0.00;99.90;;;;;;10341999;28;20046;-64
2022/02/28 08:03:35;;;;;;;13.40;4.38;;;0.20;99.90;;;;;;10337071;28;20080;-64
2022/02/28 08:08:36;;;;;;;7.68;3.25;;;0.40;99.90;;;;;;10337252;28;20088;-64
2022/02/28 08:13:38;;;;;;;8.57;3.72;;;0.60;99.90;;;;;;10341604;28;20105;-64
2022/02/28 08:18:41;;;;;;;9.70;3.10;;;0.80;99.90;;;;;;10346988;28;20140;-64
2022/02/28 08:23:43;;;;;;;8.43;3.40;;;1.00;99.90;;;;;;10341960;28;20049;-64
2022/02/28 08:28:45;;;;;;;11.65;3.03;;;1.20;98.90;;;;;;10336876;28;20172;-64
2022/02/28 08:33:47;;;;;;;7.05;3.25;;;1.40;97.40;;;;;;10351338;28;20140;-64
2022/02/28 08:38:50;;;;;;;9.80;3.20;;;1.50;96.00;;;;;;10348081;28;20545;-64
2022/02/28 08:43:51;;;;;;;11.80;3.63;;;1.70;94.50;;;;;;10346052;28;20128;-64
2022/02/28 08:48:53;;;;;;;9.98;3.17;;;1.80;93.80;;;;;;10348771;28;20045;-64
2022/02/28 08:53:55;;;;;;;8.27;3.25;;;2.00;93.20;;;;;;10338836;28;20461;-64
2022/02/28 08:58:56;;;;;;;10.02;3.15;;;2.10;93.10;;;;;;10353945;28;20163;-65
2022/02/28 09:03:58;;;;;;;10.82;3.45;;;2.30;91.60;;;;;;10347495;28;20046;-65
2022/02/28 09:09:00;;;;;;;8.00;3.30;;;2.40;90.80;;;;;;10340422;28;20123;-66
2022/02/28 09:14:01;;;;;;;11.75;3.90;;;2.50;90.90;;;;;;10343335;28;20107;-66
2022/02/28 09:19:03;;;;;;;8.80;3.63;;;2.60;90.10;;;;;;10342886;28;20452;-65
2022/02/28 09:24:05;;;;;;;9.35;2.92;;;2.80;90.00;;;;;;10344631;28;20642;-65
2022/02/28 09:29:07;;;;;;;16.13;4.70;;;2.90;89.30;;;;;;10345829;28;20136;-65
2022/02/28 09:34:08;;;;;;;10.40;3.58;;;3.00;88.90;;;;;;10349195;28;20058;-64
2022/02/28 09:39:10;;;;;;;8.88;3.92;;;3.10;88.30;;;;;;10342981;28;20611;-65
2022/02/28 09:44:17;;;;;;;10.95;4.35;;;3.30;88.10;;;;;;10350321;28;20069;-65
2022/02/28 09:49:18;;;;;;;9.13;4.10;;;3.40;89.70;;;;;;10345289;28;20129;-65
2022/02/28 09:54:20;;;;;;;7.45;3.90;;;3.60;89.00;;;;;;10345643;28;20069;-65
2022/02/28 09:59:22;;;;;;;10.65;3.67;;;3.80;88.70;;;;;;10344331;28;20073;-65
2022/02/28 10:04:34;;;;;;;11.57;4.25;;;4.00;86.40;;;;;;10340434;28;20049;-64
2022/02/28 10:09:35;;;;;;;9.27;3.80;;;4.10;81.80;;;;;;10340288;28;20056;-64
2022/02/28 10:14:37;;;;;;;11.52;3.83;;;4.30;81.00;;;;;;10336309;28;20382;-66
2022/02/28 10:19:39;;;;;;;8.43;4.15;;;4.40;80.30;;;;;;10347335;28;20078;-65
2022/02/28 10:24:42;;;;;;;9.95;4.63;;;4.40;80.70;;;;;;10338979;28;20104;-65
2022/02/28 10:29:45;;;;;;;10.15;4.70;;;4.60;80.20;;;;;;10346004;28;21230;-64
2022/02/28 10:40:31;;;;;;;9.77;4.60;;;4.80;78.40;;;;;;10341301;28;20050;-65
2022/02/28 10:45:35;;;;;;;15.68;4.70;;;5.00;77.80;;;;;;10342472;28;20451;-66
2022/02/28 10:50:39;;;;;;;9.85;4.47;;;5.00;74.70;;;;;;10343896;28;20055;-66
2022/02/28 10:55:41;;;;;;;23.15;4.82;;;5.20;76.00;;;;;;10337421;28;20054;-66
2022/02/28 11:01:18;;;;;;;12.45;5.65;;;5.30;75.90;;;;;;10336235;28;20054;-66
2022/02/28 11:06:23;;;;;;;14.80;5.10;;;5.50;76.10;;;;;;10259932;28;20054;-65
2022/02/28 11:11:25;;;;;;;12.23;4.50;;;5.60;75.50;;;;;;10333606;28;20415;-65
2022/02/28 11:16:28;;;;;;;14.50;5.07;;;5.80;72.80;;;;;;10344911;28;20054;-65
2022/02/28 11:21:36;;;;;;;13.63;4.70;;;5.90;72.90;;;;;;10344939;28;20060;-65
2022/02/28 11:26:38;;;;;;;9.57;4.50;;;6.00;71.50;;;;;;10335673;28;20795;-66
2022/02/28 11:31:40;;;;;;;8.25;3.67;;;6.20;70.40;;;;;;10337703;28;20085;-65
2022/02/28 11:36:47;;;;;;;8.52;3.90;;;6.30;69.80;;;;;;10336625;28;20050;-65
2022/02/28 11:41:49;;;;;;;14.35;4.55;;;6.40;71.40;;;;;;10317682;28;20073;-65
2022/02/28 11:47:03;;;;;;;12.90;4.32;;;6.60;69.10;;;;;;10352710;28;20056;-65
2022/02/28 11:52:36;;;;;;;9.00;4.07;;;6.70;67.40;;;;;;10342450;28;20068;-64
2022/02/28 11:57:56;;;;;;;13.40;4.47;;;6.80;66.80;;;;;;10348111;28;20524;-65
2022/02/28 12:02:58;;;;;;;9.20;4.13;;;7.00;67.20;;;;;;10343990;28;20077;-65
2022/02/28 12:08:00;;;;;;;8.45;4.70;;;7.40;66.30;;;;;;10346418;28;20049;-67
2022/02/28 12:13:05;;;;;;;11.70;5.43;;;8.10;64.40;;;;;;10348397;28;20050;-65
2022/02/28 12:18:09;;;;;;;10.15;5.05;;;9.50;61.20;;;;;;10356169;28;20103;-65
2022/02/28 12:23:12;;;;;;;9.27;4.03;;;10.80;56.00;;;;;;10349843;28;20050;-65
2022/02/28 12:28:22;;;;;;;9.02;4.20;;;11.40;52.90;;;;;;10348535;28;20053;-64
2022/02/28 12:33:25;;;;;;;7.60;5.03;;;11.30;51.90;;;;;;10355190;28;20050;-64
2022/02/28 12:38:31;;;;;;;10.43;4.40;;;11.20;53.10;;;;;;10346893;28;20046;-64
2022/02/28 12:43:34;;;;;;;10.20;3.92;;;10.90;53.50;;;;;;10340506;28;20133;-64
2022/02/28 12:48:41;;;;;;;;;;;10.80;53.60;;;;;;10351663;28;20061;-65
2022/02/28 12:53:46;;;;;;;10.27;4.32;;;10.40;52.90;;;;;;10343754;28;20423;-64
2022/02/28 12:58:53;;;;;;;11.63;4.10;;;10.20;55.20;;;;;;10345540;28;20039;-65
2022/02/28 13:03:57;;;;;;;12.60;4.35;;;10.10;55.40;;;;;;10339378;28;20763;-65
2022/02/28 13:09:01;;;;;;;9.60;4.30;;;10.80;53.50;;;;;;10348403;28;20053;-65
2022/02/28 13:14:07;;;;;;;7.15;4.00;;;11.90;51.50;;;;;;10333388;28;20074;-65
2022/02/28 13:19:15;;;;;;;5.40;4.20;;;13.40;55.70;;;;;;10341400;28;20049;-65
2022/02/28 13:24:20;;;;;;;6.63;4.00;;;14.40;45.70;;;;;;10349917;28;20092;-66
2022/02/28 13:29:24;;;;;;;11.70;4.72;;;14.90;44.50;;;;;;10334923;28;20049;-66
2022/02/28 13:34:28;;;;;;;9.07;3.70;;;15.90;43.10;;;;;;10336821;28;20050;-66
2022/02/28 13:39:35;;;;;;;6.25;3.55;;;17.10;40.80;;;;;;10351562;28;20493;-65
2022/02/28 13:44:46;;;;;;;4.53;3.80;;;17.90;38.70;;;;;;10342392;28;20573;-66
2022/02/28 13:49:51;;;;;;;7.40;3.80;;;18.50;37.30;;;;;;10338436;28;20050;-66
2022/02/28 13:55:05;;;;;;;6.47;3.40;;;18.60;38.10;;;;;;10339867;28;20129;-66
2022/02/28 14:00:19;;;;;;;7.88;4.05;;;19.00;38.10;;;;;;10336201;28;20049;-66
2022/02/28 14:05:24;;;;;;;12.80;4.07;;;19.20;36.40;;;;;;10340274;28;20404;-66
2022/02/28 14:10:31;;;;;;;9.10;4.03;;;19.50;35.50;;;;;;10340245;28;20140;-66
2022/02/28 14:15:33;;;;;;;7.25;3.75;;;19.40;36.70;;;;;;10328640;28;20113;-66
2022/02/28 14:20:37;;;;;;;7.20;4.00;;;18.90;36.80;;;;;;10346767;28;20557;-66
2022/02/28 14:25:41;;;;;;;8.10;3.72;;;18.40;37.00;;;;;;10339026;28;20111;-66
2022/02/28 14:31:06;;;;;;;5.07;3.38;;;17.90;38.10;;;;;;10336502;28;20066;-66
2022/02/28 14:36:11;;;;;;;7.57;3.42;;;17.40;38.50;;;;;;10332317;28;20060;-65
2022/02/28 14:41:12;;;;;;;5.75;3.40;;;17.10;38.10;;;;;;10343474;28;20135;-66
2022/02/28 14:46:18;;;;;;;5.97;3.33;;;16.40;40.10;;;;;;10343708;28;20048;-65
2022/02/28 14:51:20;;;;;;;4.13;3.20;;;16.20;40.50;;;;;;10342326;28;20045;-66
2022/02/28 14:56:22;;;;;;;6.32;3.38;;;15.90;41.40;;;;;;10345688;28;20550;-65
2022/02/28 15:01:24;;;;;;;4.72;3.38;;;15.50;40.80;;;;;;10336697;28;20135;-65
2022/02/28 15:06:26;;;;;;;7.85;4.22;;;15.00;40.80;;;;;;10346458;28;20117;-65
2022/02/28 15:11:28;;;;;;;4.60;3.20;;;14.80;40.30;;;;;;10349087;28;20061;-64
2022/02/28 15:16:33;;;;;;;3.50;2.28;;;14.70;40.80;;;;;;10330628;28;20148;-65
2022/02/28 15:21:36;;;;;;;6.10;3.10;;;14.40;41.20;;;;;;10340649;28;20136;-64
2022/02/28 15:26:38;;;;;;;4.80;2.72;;;14.20;41.90;;;;;;10352933;28;20062;-63
2022/02/28 15:31:40;;;;;;;10.73;2.70;;;14.00;42.30;;;;;;10355322;28;20054;-63
2022/02/28 15:36:42;;;;;;;6.13;3.50;;;13.70;43.70;;;;;;10349660;28;20081;-63
2022/02/28 15:41:44;;;;;;;8.27;2.80;;;13.50;43.90;;;;;;10350860;28;20467;-63
2022/02/28 15:46:46;;;;;;;7.00;3.60;;;13.40;44.00;;;;;;10359937;28;20053;-63
2022/02/28 15:51:47;;;;;;;4.95;2.40;;;13.20;43.90;;;;;;10354623;28;20471;-63
2022/02/28 15:56:49;;;;;;;5.80;2.85;;;13.00;44.60;;;;;;10352117;28;20057;-64
2022/02/28 16:01:51;;;;;;;46.03;15.82;;;12.90;46.40;;;;;;10348247;28;20601;-64
2022/02/28 16:06:57;;;;;;;15.20;6.78;;;12.40;46.50;;;;;;10350815;28;20045;-63
2022/02/28 16:11:59;;;;;;;7.38;3.20;;;12.00;47.60;;;;;;10356803;28;20048;-63
2022/02/28 16:17:03;;;;;;;7.43;3.40;;;11.60;48.50;;;;;;10338963;28;20054;-62
2022/02/28 16:22:05;;;;;;;7.05;3.25;;;11.40;50.00;;;;;;10350244;28;20128;-63
2022/02/28 16:27:07;;;;;;;6.40;2.53;;;11.20;51.50;;;;;;10343464;28;20049;-63
2022/02/28 16:32:09;;;;;;;8.43;3.65;;;11.00;52.40;;;;;;10353149;28;20050;-63
2022/02/28 16:37:11;;;;;;;10.55;3.67;;;10.70;54.10;;;;;;10343113;28;20114;-63
2022/02/28 16:42:13;;;;;;;8.23;3.47;;;10.30;55.10;;;;;;10341178;28;20054;-63
2022/02/28 16:47:15;;;;;;;6.97;3.53;;;10.00;56.40;;;;;;10355805;28;20899;-63
2022/02/28 16:52:17;;;;;;;8.90;4.00;;;9.70;58.00;;;;;;10346926;28;20097;-62
2022/02/28 16:57:19;;;;;;;7.28;3.47;;;9.40;59.60;;;;;;10346291;28;20225;-64
2022/02/28 17:02:20;;;;;;;8.75;3.45;;;9.10;60.20;;;;;;10334546;28;20112;-63
2022/02/28 17:07:22;;;;;;;9.85;4.80;;;8.80;61.10;;;;;;10341185;28;20111;-62
2022/02/28 17:12:24;;;;;;;8.27;3.88;;;8.60;62.10;;;;;;10345900;28;20070;-63
2022/02/28 17:17:26;;;;;;;9.68;3.58;;;8.30;64.20;;;;;;10342034;28;20119;-61
2022/02/28 17:22:28;;;;;;;10.45;4.65;;;8.00;65.30;;;;;;10345868;28;20049;-61
2022/02/28 17:27:31;;;;;;;17.67;6.43;;;7.80;68.00;;;;;;10345378;28;20042;-61
2022/02/28 17:32:34;;;;;;;12.63;4.68;;;7.50;68.60;;;;;;10335312;28;20042;-60
2022/02/28 17:37:36;;;;;;;8.68;3.95;;;7.30;67.90;;;;;;10348884;28;20517;-59
2022/02/28 17:42:39;;;;;;;10.68;5.20;;;7.10;67.80;;;;;;10343359;28;20119;-60
2022/02/28 17:47:41;;;;;;;15.13;6.47;;;6.90;70.20;;;;;;10347621;28;20077;-61
2022/02/28 17:52:47;;;;;;;14.77;7.75;;;6.60;74.90;;;;;;10345457;28;20050;-61
2022/02/28 17:57:49;;;;;;;13.95;6.78;;;6.40;76.80;;;;;;10341412;28;20119;-61
2022/02/28 18:02:53;;;;;;;19.42;6.78;;;6.10;78.20;;;;;;10335925;28;20137;-61
2022/02/28 18:07:55;;;;;;;25.13;9.48;;;5.90;79.40;;;;;;10342437;28;20056;-61
2022/02/28 18:12:57;;;;;;;18.88;7.50;;;5.60;84.30;;;;;;10338891;28;20080;-60
2022/02/28 18:17:59;;;;;;;16.23;5.45;;;5.40;83.70;;;;;;10343975;28;20074;-61
2022/02/28 18:23:00;;;;;;;9.98;5.90;;;5.30;81.30;;;;;;10339706;28;20203;-61
2022/02/28 18:28:02;;;;;;;17.02;6.00;;;5.10;82.00;;;;;;10351624;28;20071;-60
2022/02/28 18:33:05;;;;;;;47.15;17.83;;;5.00;82.70;;;;;;10348586;28;20159;-60
2022/02/28 18:38:10;;;;;;;56.10;18.40;;;4.80;86.70;;;;;;10337017;28;20058;-60
2022/02/28 18:43:15;;;;;;;46.35;17.88;;;4.60;88.30;;;;;;10338550;28;20133;-60
2022/02/28 18:48:18;;;;;;;40.78;14.98;;;4.40;90.40;;;;;;10336626;28;20050;-60
2022/02/28 18:53:20;;;;;;;25.23;10.23;;;4.30;92.20;;;;;;10341331;28;20103;-60
2022/02/28 18:58:22;;;;;;;12.43;5.25;;;4.10;92.00;;;;;;10337790;28;20057;-61
2022/02/28 19:03:23;;;;;;;13.65;4.82;;;4.00;90.80;;;;;;10343288;28;20615;-61
2022/02/28 19:08:32;;;;;;;14.45;4.85;;;3.90;90.20;;;;;;10339353;28;21334;-59
2022/02/28 19:13:34;;;;;;;12.10;5.07;;;3.80;90.50;;;;;;10334791;28;20050;-59
2022/02/28 19:18:35;;;;;;;18.77;7.20;;;3.70;91.00;;;;;;10344375;28;20151;-60
2022/02/28 19:23:39;;;;;;;15.68;7.68;;;3.50;94.10;;;;;;10340355;28;20050;-60
2022/02/28 19:28:41;;;;;;;15.52;5.32;;;3.40;94.90;;;;;;10344526;28;20073;-59
2022/02/28 19:33:43;;;;;;;12.57;5.70;;;3.30;93.50;;;;;;10341103;28;20131;-59
2022/02/28 19:38:46;;;;;;;16.10;6.35;;;3.20;93.60;;;;;;10340523;28;20132;-60
2022/02/28 19:43:47;;;;;;;11.57;5.88;;;3.10;95.50;;;;;;10339922;28;20069;-61
2022/02/28 19:48:51;;;;;;;19.55;6.25;;;3.00;97.20;;;;;;10338592;28;20460;-60
2022/02/28 19:53:54;;;;;;;11.77;5.07;;;2.90;99.30;;;;;;10336788;28;20073;-61
2022/02/28 19:59:17;;;;;;;22.15;5.80;;;2.80;99.10;;;;;;10341848;28;20052;-62
2022/02/28 20:04:19;;;;;;;19.38;5.68;;;2.70;97.10;;;;;;10341804;28;20058;-61
2022/02/28 20:09:23;;;;;;;17.92;6.53;;;2.60;98.00;;;;;;10349603;28;20077;-60
2022/02/28 20:14:24;;;;;;;16.27;6.30;;;2.50;99.00;;;;;;10344680;28;20054;-61
2022/02/28 20:19:26;;;;;;;15.80;5.93;;;2.40;99.90;;;;;;10342748;28;20045;-61
2022/02/28 20:24:28;;;;;;;18.55;6.07;;;2.30;99.90;;;;;;10352154;28;20147;-63
2022/02/28 20:29:30;;;;;;;10.57;5.15;;;2.20;99.90;;;;;;10349543;28;20120;-61
2022/02/28 20:34:31;;;;;;;11.65;4.82;;;2.10;99.90;;;;;;10341676;28;20050;-60
2022/02/28 20:39:33;;;;;;;12.85;3.92;;;2.10;99.90;;;;;;10346790;28;20503;-61
2022/02/28 20:44:35;;;;;;;13.82;4.72;;;2.00;99.90;;;;;;10348538;28;20089;-61
2022/02/28 20:49:37;;;;;;;12.48;5.22;;;2.00;99.90;;;;;;10346923;28;20497;-61
2022/02/28 20:54:39;;;;;;;10.30;4.80;;;1.90;99.90;;;;;;10352316;28;20046;-61
2022/02/28 20:59:41;;;;;;;12.05;4.97;;;1.80;99.90;;;;;;10354842;28;20137;-62
2022/02/28 21:04:43;;;;;;;10.80;5.78;;;1.80;99.90;;;;;;10341143;28;20073;-60
2022/02/28 21:09:45;;;;;;;14.18;5.18;;;1.70;99.90;;;;;;10345902;28;20082;-60
2022/02/28 21:14:46;;;;;;;11.40;5.07;;;1.60;99.90;;;;;;10346487;28;20082;-59
2022/02/28 21:19:48;;;;;;;12.68;5.85;;;1.60;99.90;;;;;;10349210;28;20140;-59
2022/02/28 21:24:50;;;;;;;10.57;5.13;;;1.50;99.90;;;;;;10342439;28;20077;-59
2022/02/28 21:29:52;;;;;;;10.27;4.88;;;1.40;99.90;;;;;;10347122;28;20117;-60
2022/02/28 21:34:53;;;;;;;13.02;4.90;;;1.40;99.90;;;;;;10350719;28;20151;-60
2022/02/28 21:39:55;;;;;;;11.07;4.45;;;1.30;99.90;;;;;;10341106;28;20140;-60
2022/02/28 21:44:56;;;;;;;11.82;4.40;;;1.20;99.90;;;;;;10350852;28;20472;-60
2022/02/28 21:49:58;;;;;;;10.73;4.45;;;1.20;99.90;;;;;;10349422;28;20053;-61
2022/02/28 21:55:00;;;;;;;7.18;3.38;;;1.10;99.90;;;;;;10346711;28;20050;-61
2022/02/28 22:00:03;;;;;;;8.13;3.47;;;1.10;99.90;;;;;;10343554;28;20054;-60
2022/02/28 22:05:05;;;;;;;6.95;3.45;;;1.00;99.90;;;;;;10334726;28;20139;-60
2022/02/28 22:10:08;;;;;;;9.85;3.33;;;1.00;99.90;;;;;;10346363;28;20473;-60
2022/02/28 22:15:10;;;;;;;8.88;3.90;;;0.90;99.90;;;;;;10342408;28;20034;-61
2022/02/28 22:20:12;;;;;;;7.40;3.33;;;0.90;99.90;;;;;;10341014;28;20107;-61
2022/02/28 22:25:14;;;;;;;6.70;3.28;;;0.80;99.90;;;;;;10349054;28;20049;-60
2022/02/28 22:30:16;;;;;;;8.18;3.38;;;0.80;99.90;;;;;;10341570;28;20041;-61
2022/02/28 22:35:17;;;;;;;7.60;3.33;;;0.70;99.90;;;;;;10342465;28;20125;-60
2022/02/28 22:40:19;;;;;;;11.13;3.80;;;0.70;99.90;;;;;;10350475;28;20092;-60
2022/02/28 22:45:21;;;;;;;11.13;3.30;;;0.70;99.90;;;;;;10344424;28;20085;-60
2022/02/28 22:50:22;;;;;;;10.43;3.47;;;0.60;99.90;;;;;;10342067;28;20077;-61
2022/02/28 22:55:24;;;;;;;10.07;3.28;;;0.60;99.90;;;;;;10335284;28;20137;-60
2022/02/28 23:00:35;;;;;;;8.80;3.72;;;0.50;99.90;;;;;;10341446;28;20069;-60
2022/02/28 23:05:40;;;;;;;7.88;3.60;;;0.50;99.90;;;;;;10338129;28;20132;-62
2022/02/28 23:21:22;;;;;;;7.97;3.78;;;0.40;99.90;;;;;;10337977;28;20057;-61
2022/02/28 23:26:24;;;;;;;9.52;4.40;;;0.30;99.90;;;;;;10339521;28;20112;-61
2022/02/28 23:31:26;;;;;;;10.18;3.72;;;0.30;99.90;;;;;;10331916;28;20153;-61
2022/02/28 23:36:27;;;;;;;10.23;4.10;;;0.30;99.90;;;;;;10341732;28;20045;-63
2022/02/28 23:41:29;;;;;;;10.38;3.28;;;0.20;99.90;;;;;;10342933;28;20066;-62
2022/02/28 23:46:31;;;;;;;14.02;3.80;;;0.30;99.90;;;;;;10354159;28;20103;-61
2022/02/28 23:51:35;;;;;;;8.13;3.95;;;0.30;99.90;;;;;;10346191;28;20042;-62
2022/02/28 23:56:36;;;;;;;15.05;4.45;;;0.20;99.90;;;;;;10348144;28;20108;-61
